Garland Springs, Arkansas
Current Conditions -  °F | °C
As of 11:56 AM on Tuesday 21 Oct 2014 (Local Time) from KSRC Reporting Station
Clear Clear  
Wind Chill: 73°   Ceiling: Unl
Heat Index: 73°   Visibility: 10mi
Dew Point: 51°   Wind: 0mph
Humidity: 46%   Direction: NA
Pressure: 30.13"   Gusts: NA
Location:  35.2847°N, 92.1468°W
Report Text: KSRC 211656Z AUTO 00000KT 10SM CLR 23/11 A3013 RMK AO2 SLP208 T02280106 TSNO
Loading
Personal Weather Stations






























Interactive Weather Map New forecast layout! Learn more

10-Day Weather Forecast

Advertisements
Track Severe Weather on mobile